Rocklake, North Dakota
Current Conditions -  °F | °C
As of 11:35 AM on Thursday 30 Oct 2014 (Local Time) from K06D Reporting Station
Overcast Overcast  
Wind Chill: -10°   Ceiling: 1700
Heat Index: -2°   Visibility: 10mi
Dew Point: -5°   Wind: 25mph
Humidity: 80%   Direction: 360°N
Pressure: 30.37"   Gusts: 30mph
Location:  48.79°N, 99.25°W
Report Text: K06D 301635Z AUTO 36022G26KT 10SM OVC017 M02/M05 A3037 RMK AO2
Loading
Personal Weather Stations






























Interactive Weather Map
Tropical Storm Tracking
New forecast layout! Learn more

10-Day Weather Forecast

Advertisements
Track Severe Weather on mobile